sensor_id;sensor_type;location;lat;lon;timestamp;pressure;altitude;pressure_sealevel;temperature;humidity
62544;BME280;48597;49.030;1.822;2022-12-20T00:00:16;100578.69;;;19.95;37.31
62544;BME280;48597;49.030;1.822;2022-12-20T00:02:42;100576.63;;;19.96;37.34
62544;BME280;48597;49.030;1.822;2022-12-20T00:05:07;100588.09;;;19.96;37.38
62544;BME280;48597;49.030;1.822;2022-12-20T00:07:33;100583.97;;;19.97;37.27
62544;BME280;48597;49.030;1.822;2022-12-20T00:09:58;100588.09;;;19.96;37.31
62544;BME280;48597;49.030;1.822;2022-12-20T00:12:24;100578.69;;;19.95;37.26
62544;BME280;48597;49.030;1.822;2022-12-20T00:14:50;100573.78;;;19.96;37.34
62544;BME280;48597;49.030;1.822;2022-12-20T00:17:15;100569.31;;;19.95;37.33
62544;BME280;48597;49.030;1.822;2022-12-20T00:19:42;100575.94;;;19.92;37.27
62544;BME280;48597;49.030;1.822;2022-12-20T00:22:08;100569.41;;;19.91;37.28
62544;BME280;48597;49.030;1.822;2022-12-20T00:24:35;100559.69;;;19.89;37.28
62544;BME280;48597;49.030;1.822;2022-12-20T00:27:00;100561.28;;;19.90;37.30
62544;BME280;48597;49.030;1.822;2022-12-20T00:29:26;100548.25;;;19.89;37.47
62544;BME280;48597;49.030;1.822;2022-12-20T00:31:51;100558.09;;;19.88;37.14
62544;BME280;48597;49.030;1.822;2022-12-20T00:34:17;100545.38;;;19.89;37.33
62544;BME280;48597;49.030;1.822;2022-12-20T00:36:42;100547.91;;;19.87;37.29
62544;BME280;48597;49.030;1.822;2022-12-20T00:39:08;100547.34;;;19.92;37.16
62544;BME280;48597;49.030;1.822;2022-12-20T00:41:33;100541.63;;;19.92;37.18
62544;BME280;48597;49.030;1.822;2022-12-20T00:43:59;100542.88;;;19.91;37.13
62544;BME280;48597;49.030;1.822;2022-12-20T00:46:25;100538.88;;;19.88;37.27
62544;BME280;48597;49.030;1.822;2022-12-20T00:48:51;100537.59;;;19.89;37.12
62544;BME280;48597;49.030;1.822;2022-12-20T00:51:21;100539.66;;;19.89;37.21
62544;BME280;48597;49.030;1.822;2022-12-20T00:53:47;100539.66;;;19.89;37.30
62544;BME280;48597;49.030;1.822;2022-12-20T00:56:13;100556.03;;;19.88;37.31
62544;BME280;48597;49.030;1.822;2022-12-20T00:58:40;100541.06;;;19.84;37.34
62544;BME280;48597;49.030;1.822;2022-12-20T01:01:18;100544.25;;;19.86;37.35
62544;BME280;48597;49.030;1.822;2022-12-20T01:03:44;100537.25;;;19.87;37.31
62544;BME280;48597;49.030;1.822;2022-12-20T01:06:10;100536.47;;;19.87;37.31
62544;BME280;48597;49.030;1.822;2022-12-20T01:08:35;100532.34;;;19.88;37.33
62544;BME280;48597;49.030;1.822;2022-12-20T01:13:42;100526.63;;;19.88;37.32
62544;BME280;48597;49.030;1.822;2022-12-20T01:18:38;100526.97;;;19.90;37.30
62544;BME280;48597;49.030;1.822;2022-12-20T01:21:07;100525.81;;;19.87;37.45
62544;BME280;48597;49.030;1.822;2022-12-20T01:23:33;100525.50;;;19.85;37.37
62544;BME280;48597;49.030;1.822;2022-12-20T01:25:59;100531.44;;;19.91;37.35
62544;BME280;48597;49.030;1.822;2022-12-20T01:28:26;100531.78;;;19.93;37.27
62544;BME280;48597;49.030;1.822;2022-12-20T01:30:51;100528.22;;;19.89;37.43
62544;BME280;48597;49.030;1.822;2022-12-20T01:33:17;100516.78;;;19.89;37.39
62544;BME280;48597;49.030;1.822;2022-12-20T01:35:42;100529.81;;;19.90;37.53
62544;BME280;48597;49.030;1.822;2022-12-20T01:38:18;100525.38;;;19.89;37.39
62544;BME280;48597;49.030;1.822;2022-12-20T01:40:43;100525.72;;;19.91;37.49
62544;BME280;48597;49.030;1.822;2022-12-20T01:43:11;100527.78;;;19.90;37.45
62544;BME280;48597;49.030;1.822;2022-12-20T01:45:39;100538.41;;;19.90;37.47
62544;BME280;48597;49.030;1.822;2022-12-20T01:48:04;100539.22;;;19.90;37.52
62544;BME280;48597;49.030;1.822;2022-12-20T01:50:30;100538.88;;;19.88;37.52
62544;BME280;48597;49.030;1.822;2022-12-20T01:52:55;100533.59;;;19.87;37.50
62544;BME280;48597;49.030;1.822;2022-12-20T01:55:25;100526.97;;;19.90;37.42
62544;BME280;48597;49.030;1.822;2022-12-20T01:58:01;100533.94;;;19.89;37.55
62544;BME280;48597;49.030;1.822;2022-12-20T02:00:29;100524.91;;;19.90;37.55
62544;BME280;48597;49.030;1.822;2022-12-20T02:02:58;100531.09;;;19.89;37.53
62544;BME280;48597;49.030;1.822;2022-12-20T02:05:24;100531.09;;;19.89;37.58
62544;BME280;48597;49.030;1.822;2022-12-20T02:07:52;100529.81;;;19.90;37.51
62544;BME280;48597;49.030;1.822;2022-12-20T02:10:20;100526.16;;;19.89;37.64
62544;BME280;48597;49.030;1.822;2022-12-20T02:12:47;100521.72;;;19.88;37.69
62544;BME280;48597;49.030;1.822;2022-12-20T02:15:40;100525.38;;;19.89;37.59
62544;BME280;48597;49.030;1.822;2022-12-20T02:32:13;100504.44;;;19.92;37.59
62544;BME280;48597;49.030;1.822;2022-12-20T02:34:41;100494.59;;;19.93;37.55
62544;BME280;48597;49.030;1.822;2022-12-20T02:37:08;100501.91;;;19.94;37.62
62544;BME280;48597;49.030;1.822;2022-12-20T02:39:35;100500.31;;;19.93;37.51
62544;BME280;48597;49.030;1.822;2022-12-20T02:42:08;100495.50;;;19.90;37.65
62544;BME280;48597;49.030;1.822;2022-12-20T02:44:37;100483.59;;;19.91;37.64
62544;BME280;48597;49.030;1.822;2022-12-20T02:47:27;100480.75;;;19.91;37.74
62544;BME280;48597;49.030;1.822;2022-12-20T02:49:56;100471.72;;;19.93;37.68
62544;BME280;48597;49.030;1.822;2022-12-20T02:52:23;100477.31;;;19.96;37.55
62544;BME280;48597;49.030;1.822;2022-12-20T02:54:54;100470.44;;;19.94;37.71
62544;BME280;48597;49.030;1.822;2022-12-20T03:02:28;100493.69;;;19.96;37.56
62544;BME280;48597;49.030;1.822;2022-12-20T03:05:15;100500.19;;;19.96;37.63
62544;BME280;48597;49.030;1.822;2022-12-20T03:07:40;100482.25;;;19.96;37.74
62544;BME280;48597;49.030;1.822;2022-12-20T03:10:06;100483.50;;;19.95;37.74
62544;BME280;48597;49.030;1.822;2022-12-20T03:12:32;100489.91;;;19.99;37.64
62544;BME280;48597;49.030;1.822;2022-12-20T03:14:57;100480.03;;;20.00;37.40
62544;BME280;48597;49.030;1.822;2022-12-20T03:17:22;100477.78;;;19.95;37.55
62544;BME280;48597;49.030;1.822;2022-12-20T03:19:48;100476.50;;;19.96;37.57
62544;BME280;48597;49.030;1.822;2022-12-20T03:22:13;100472.75;;;19.99;37.48
62544;BME280;48597;49.030;1.822;2022-12-20T03:24:39;100472.75;;;19.99;37.45
62544;BME280;48597;49.030;1.822;2022-12-20T03:27:05;100465.72;;;20.00;37.61
62544;BME280;48597;49.030;1.822;2022-12-20T03:29:30;100473.84;;;20.02;37.43
62544;BME280;48597;49.030;1.822;2022-12-20T03:31:56;100471.94;;;19.98;37.62
62544;BME280;48597;49.030;1.822;2022-12-20T03:34:21;100449.50;;;19.97;37.65
62544;BME280;48597;49.030;1.822;2022-12-20T03:36:47;100452.38;;;19.97;37.60
62544;BME280;48597;49.030;1.822;2022-12-20T03:39:13;100448.25;;;19.98;37.63
62544;BME280;48597;49.030;1.822;2022-12-20T03:41:40;100448.25;;;19.98;37.59
62544;BME280;48597;49.030;1.822;2022-12-20T03:44:05;100464.16;;;19.99;37.64
62544;BME280;48597;49.030;1.822;2022-12-20T03:46:31;100457.16;;;20.00;37.53
62544;BME280;48597;49.030;1.822;2022-12-20T03:48:56;100463.66;;;20.01;37.46
62544;BME280;48597;49.030;1.822;2022-12-20T03:51:22;100470.19;;;20.01;37.55
62544;BME280;48597;49.030;1.822;2022-12-20T03:53:48;100475.13;;;20.01;37.56
62544;BME280;48597;49.030;1.822;2022-12-20T03:56:14;100463.34;;;19.98;37.58
62544;BME280;48597;49.030;1.822;2022-12-20T03:58:39;100461.41;;;19.95;37.73
62544;BME280;48597;49.030;1.822;2022-12-20T04:01:19;100458.09;;;19.97;37.63
62544;BME280;48597;49.030;1.822;2022-12-20T04:03:45;100450.16;;;20.01;37.44
62544;BME280;48597;49.030;1.822;2022-12-20T04:06:10;100447.00;;;19.99;37.64
62544;BME280;48597;49.030;1.822;2022-12-20T04:08:35;100445.25;;;20.02;37.64
62544;BME280;48597;49.030;1.822;2022-12-20T04:11:01;100447.66;;;20.03;37.62
62544;BME280;48597;49.030;1.822;2022-12-20T04:13:44;100425.69;;;20.00;37.79
62544;BME280;48597;49.030;1.822;2022-12-20T04:16:11;100415.03;;;20.01;37.71
62544;BME280;48597;49.030;1.822;2022-12-20T04:18:37;100411.88;;;19.98;37.71
62544;BME280;48597;49.030;1.822;2022-12-20T04:21:03;100409.47;;;19.97;37.80
62544;BME280;48597;49.030;1.822;2022-12-20T04:23:29;100407.41;;;19.97;37.76
62544;BME280;48597;49.030;1.822;2022-12-20T04:25:54;100401.22;;;19.99;37.75
62544;BME280;48597;49.030;1.822;2022-12-20T04:28:19;100403.13;;;20.02;37.69
62544;BME280;48597;49.030;1.822;2022-12-20T04:30:45;100414.22;;;20.00;37.58
62544;BME280;48597;49.030;1.822;2022-12-20T04:33:10;100409.31;;;20.01;37.80
62544;BME280;48597;49.030;1.822;2022-12-20T04:35:36;100428.53;;;20.00;37.86
62544;BME280;48597;49.030;1.822;2022-12-20T04:38:02;100432.69;;;19.99;37.74
62544;BME280;48597;49.030;1.822;2022-12-20T04:40:27;100422.00;;;19.99;37.84
62544;BME280;48597;49.030;1.822;2022-12-20T04:42:53;100442.03;;;19.99;37.76
62544;BME280;48597;49.030;1.822;2022-12-20T04:45:19;100440.31;;;20.02;37.62
62544;BME280;48597;49.030;1.822;2022-12-20T04:47:44;100442.84;;;20.00;37.71
62544;BME280;48597;49.030;1.822;2022-12-20T04:50:11;100436.31;;;19.99;37.72
62544;BME280;48597;49.030;1.822;2022-12-20T04:52:37;100426.16;;;19.98;37.79
62544;BME280;48597;49.030;1.822;2022-12-20T04:55:21;100426.16;;;19.98;38.04
62544;BME280;48597;49.030;1.822;2022-12-20T04:57:47;100434.75;;;19.98;37.87
62544;BME280;48597;49.030;1.822;2022-12-20T05:00:13;100449.50;;;19.97;37.92
62544;BME280;48597;49.030;1.822;2022-12-20T05:02:40;100422.81;;;20.00;37.82
62544;BME280;48597;49.030;1.822;2022-12-20T05:05:06;100398.66;;;20.01;37.69
62544;BME280;48597;49.030;1.822;2022-12-20T05:07:33;100400.72;;;20.01;37.86
62544;BME280;48597;49.030;1.822;2022-12-20T05:09:58;100410.13;;;20.01;37.86
62544;BME280;48597;49.030;1.822;2022-12-20T05:12:24;100412.16;;;20.01;37.99
62544;BME280;48597;49.030;1.822;2022-12-20T05:14:50;100400.41;;;19.98;37.87
62544;BME280;48597;49.030;1.822;2022-12-20T05:17:16;100419.16;;;19.99;37.94
62544;BME280;48597;49.030;1.822;2022-12-20T05:19:41;100418.38;;;19.99;37.87
62544;BME280;48597;49.030;1.822;2022-12-20T05:22:10;100421.91;;;20.03;37.73
62544;BME280;48597;49.030;1.822;2022-12-20T05:24:54;100423.63;;;20.01;37.92
62544;BME280;48597;49.030;1.822;2022-12-20T05:27:38;100414.72;;;19.98;37.88
62544;BME280;48597;49.030;1.822;2022-12-20T05:30:04;100414.56;;;20.02;37.88
62544;BME280;48597;49.030;1.822;2022-12-20T05:32:29;100401.06;;;20.03;37.80
62544;BME280;48597;49.030;1.822;2022-12-20T05:34:56;100412.66;;;19.99;37.89
62544;BME280;48597;49.030;1.822;2022-12-20T05:37:22;100416.78;;;19.98;38.04
62544;BME280;48597;49.030;1.822;2022-12-20T05:39:47;100416.78;;;19.98;37.97
62544;BME280;48597;49.030;1.822;2022-12-20T05:42:13;100426.63;;;19.97;38.00
62544;BME280;48597;49.030;1.822;2022-12-20T05:44:38;100413.91;;;19.98;38.01
62544;BME280;48597;49.030;1.822;2022-12-20T05:47:03;100419.16;;;19.99;37.98
62544;BME280;48597;49.030;1.822;2022-12-20T05:49:29;100425.69;;;20.00;38.09
62544;BME280;48597;49.030;1.822;2022-12-20T05:51:54;100429.03;;;19.98;37.95
62544;BME280;48597;49.030;1.822;2022-12-20T05:54:20;100415.84;;;20.01;37.99
62544;BME280;48597;49.030;1.822;2022-12-20T05:56:45;100418.22;;;20.03;37.84
62544;BME280;48597;49.030;1.822;2022-12-20T05:59:11;100411.72;;;20.02;37.77
62544;BME280;48597;49.030;1.822;2022-12-20T06:01:36;100405.19;;;20.02;37.98
62544;BME280;48597;49.030;1.822;2022-12-20T06:04:02;100416.78;;;19.98;37.91
62544;BME280;48597;49.030;1.822;2022-12-20T06:06:28;100422.00;;;19.99;37.99
62544;BME280;48597;49.030;1.822;2022-12-20T06:08:53;100418.69;;;20.01;37.89
62544;BME280;48597;49.030;1.822;2022-12-20T06:11:20;100406.94;;;19.99;37.86
62544;BME280;48597;49.030;1.822;2022-12-20T06:13:45;100399.94;;;20.00;37.75
62544;BME280;48597;49.030;1.822;2022-12-20T06:16:11;100400.72;;;20.01;37.87
62544;BME280;48597;49.030;1.822;2022-12-20T06:18:36;100403.28;;;19.98;37.80
62544;BME280;48597;49.030;1.822;2022-12-20T06:21:02;100412.66;;;19.99;37.74
62544;BME280;48597;49.030;1.822;2022-12-20T06:23:27;100400.53;;;19.95;37.93
62544;BME280;48597;49.030;1.822;2022-12-20T06:25:53;100400.19;;;19.93;37.96
62544;BME280;48597;49.030;1.822;2022-12-20T06:28:19;100396.53;;;19.92;38.00
62544;BME280;48597;49.030;1.822;2022-12-20T06:30:53;100417.81;;;19.91;37.94
62544;BME280;48597;49.030;1.822;2022-12-20T06:33:19;100399.50;;;19.89;37.77
62544;BME280;48597;49.030;1.822;2022-12-20T06:35:44;100407.28;;;19.88;38.01
62544;BME280;48597;49.030;1.822;2022-12-20T06:38:10;100398.38;;;19.86;38.09
62544;BME280;48597;49.030;1.822;2022-12-20T06:40:37;100416.03;;;19.85;38.05
62544;BME280;48597;49.030;1.822;2022-12-20T06:43:02;100405.50;;;19.82;38.10
62544;BME280;48597;49.030;1.822;2022-12-20T06:45:28;100411.69;;;19.80;38.42
62544;BME280;48597;49.030;1.822;2022-12-20T06:47:53;100399.56;;;19.76;38.23
62544;BME280;48597;49.030;1.822;2022-12-20T06:50:19;100402.88;;;19.75;38.20
62544;BME280;48597;49.030;1.822;2022-12-20T06:52:44;100408.28;;;19.73;38.26
62544;BME280;48597;49.030;1.822;2022-12-20T06:55:09;100408.28;;;19.73;38.25
62544;BME280;48597;49.030;1.822;2022-12-20T06:57:35;100400.59;;;19.70;38.31
62544;BME280;48597;49.030;1.822;2022-12-20T07:00:00;100406.78;;;19.68;38.45
62544;BME280;48597;49.030;1.822;2022-12-20T07:02:26;100406.44;;;19.66;38.32
62544;BME280;48597;49.030;1.822;2022-12-20T07:04:52;100399.13;;;19.65;38.37
62544;BME280;48597;49.030;1.822;2022-12-20T07:07:17;100409.75;;;19.65;38.37
62544;BME280;48597;49.030;1.822;2022-12-20T07:09:43;100409.75;;;19.65;38.31
62544;BME280;48597;49.030;1.822;2022-12-20T07:12:08;100404.38;;;19.67;38.25
62544;BME280;48597;49.030;1.822;2022-12-20T07:14:34;100408.03;;;19.67;38.38
62544;BME280;48597;49.030;1.822;2022-12-20T07:16:59;100411.38;;;19.66;38.34
62544;BME280;48597;49.030;1.822;2022-12-20T07:19:25;100409.75;;;19.65;38.37
62544;BME280;48597;49.030;1.822;2022-12-20T07:21:52;100410.09;;;19.67;38.46
62544;BME280;48597;49.030;1.822;2022-12-20T07:24:17;100407.25;;;19.67;38.58
62544;BME280;48597;49.030;1.822;2022-12-20T07:26:43;100410.78;;;19.71;38.27
62544;BME280;48597;49.030;1.822;2022-12-20T07:29:10;100418.56;;;19.70;38.42
62544;BME280;48597;49.030;1.822;2022-12-20T07:31:35;100406.34;;;19.70;38.38
62544;BME280;48597;49.030;1.822;2022-12-20T07:34:00;100400.16;;;19.71;38.38
62544;BME280;48597;49.030;1.822;2022-12-20T07:36:26;100408.28;;;19.73;38.32
62544;BME280;48597;49.030;1.822;2022-12-20T07:38:51;100408.59;;;19.75;38.32
62544;BME280;48597;49.030;1.822;2022-12-20T07:41:17;100416.38;;;19.74;38.61
62544;BME280;48597;49.030;1.822;2022-12-20T07:43:45;100414.00;;;19.73;38.52
62544;BME280;48597;49.030;1.822;2022-12-20T07:46:14;100409.38;;;19.75;38.37
62544;BME280;48597;49.030;1.822;2022-12-20T07:48:40;100409.28;;;19.79;38.51
62544;BME280;48597;49.030;1.822;2022-12-20T07:51:26;100409.63;;;19.81;38.48
62544;BME280;48597;49.030;1.822;2022-12-20T07:54:11;100414.41;;;19.84;38.58
62544;BME280;48597;49.030;1.822;2022-12-20T07:56:40;100415.56;;;19.74;39.20
62544;BME280;48597;49.030;1.822;2022-12-20T07:59:09;100412.84;;;19.70;39.53
62544;BME280;48597;49.030;1.822;2022-12-20T08:01:36;100414.09;;;19.69;39.68
62544;BME280;48597;49.030;1.822;2022-12-20T08:04:05;100405.19;;;19.67;39.91
62544;BME280;48597;49.030;1.822;2022-12-20T08:06:33;100413.88;;;19.63;40.08
62544;BME280;48597;49.030;1.822;2022-12-20T08:09:03;100411.38;;;19.66;40.13
62544;BME280;48597;49.030;1.822;2022-12-20T08:11:29;100405.31;;;19.63;40.29
62544;BME280;48597;49.030;1.822;2022-12-20T08:13:57;100407.69;;;19.65;40.19
62544;BME280;48597;49.030;1.822;2022-12-20T08:16:22;100404.84;;;19.65;40.17
62544;BME280;48597;49.030;1.822;2022-12-20T08:18:47;100399.47;;;19.67;40.18
62544;BME280;48597;49.030;1.822;2022-12-20T08:21:13;100404.72;;;19.69;40.10
62544;BME280;48597;49.030;1.822;2022-12-20T08:23:39;100403.13;;;19.68;40.14
62544;BME280;48597;49.030;1.822;2022-12-20T08:26:05;100399.00;;;19.69;40.16
62544;BME280;48597;49.030;1.822;2022-12-20T08:28:30;100399.47;;;19.67;40.15
62544;BME280;48597;49.030;1.822;2022-12-20T08:31:00;100399.00;;;19.69;40.12
62544;BME280;48597;49.030;1.822;2022-12-20T08:33:25;100397.41;;;19.68;40.13
62544;BME280;48597;49.030;1.822;2022-12-20T08:36:03;100397.75;;;19.70;40.10
62544;BME280;48597;49.030;1.822;2022-12-20T08:38:29;100399.00;;;19.69;39.85
62544;BME280;48597;49.030;1.822;2022-12-20T08:41:03;100397.41;;;19.68;40.05
62544;BME280;48597;49.030;1.822;2022-12-20T08:43:30;100385.97;;;19.68;40.09
62544;BME280;48597;49.030;1.822;2022-12-20T08:45:56;100388.84;;;19.68;40.06
62544;BME280;48597;49.030;1.822;2022-12-20T08:48:22;100396.16;;;19.69;39.97
62544;BME280;48597;49.030;1.822;2022-12-20T08:50:56;100399.00;;;19.69;39.96
62544;BME280;48597;49.030;1.822;2022-12-20T08:53:22;100404.72;;;19.69;39.94
62544;BME280;48597;49.030;1.822;2022-12-20T08:55:47;100403.94;;;19.68;39.95
62544;BME280;48597;49.030;1.822;2022-12-20T08:58:13;100403.13;;;19.68;39.94
62544;BME280;48597;49.030;1.822;2022-12-20T09:00:40;100409.66;;;19.68;39.96
62544;BME280;48597;49.030;1.822;2022-12-20T09:03:05;100406.44;;;19.66;39.93
62544;BME280;48597;49.030;1.822;2022-12-20T09:05:31;100414.56;;;19.68;39.93
62544;BME280;48597;49.030;1.822;2022-12-20T09:07:57;100413.75;;;19.67;39.97
62544;BME280;48597;49.030;1.822;2022-12-20T09:10:23;100404.38;;;19.67;39.95
62544;BME280;48597;49.030;1.822;2022-12-20T09:12:48;100414.56;;;19.68;39.91
62544;BME280;48597;49.030;1.822;2022-12-20T09:15:13;100415.38;;;19.68;39.85
62544;BME280;48597;49.030;1.822;2022-12-20T09:17:39;100406.66;;;19.72;39.74
62544;BME280;48597;49.030;1.822;2022-12-20T09:20:05;100403.81;;;19.72;39.74
62544;BME280;48597;49.030;1.822;2022-12-20T09:22:30;100407.47;;;19.72;39.69
62544;BME280;48597;49.030;1.822;2022-12-20T09:24:56;100404.28;;;19.70;39.78
62544;BME280;48597;49.030;1.822;2022-12-20T09:27:22;100402.06;;;19.74;39.51
62544;BME280;48597;49.030;1.822;2022-12-20T09:29:47;100420.81;;;19.75;39.63
62544;BME280;48597;49.030;1.822;2022-12-20T09:32:13;100417.66;;;19.73;39.54
62544;BME280;48597;49.030;1.822;2022-12-20T09:34:38;100414.78;;;19.73;39.51
62544;BME280;48597;49.030;1.822;2022-12-20T09:37:04;100415.56;;;19.74;39.52
62544;BME280;48597;49.030;1.822;2022-12-20T09:39:29;100420.97;;;19.72;39.38
62544;BME280;48597;49.030;1.822;2022-12-20T09:41:56;100414.44;;;19.71;39.33
62544;BME280;48597;49.030;1.822;2022-12-20T09:44:28;100418.56;;;19.70;39.31
62544;BME280;48597;49.030;1.822;2022-12-20T09:46:58;100413.66;;;19.71;39.35
62544;BME280;48597;49.030;1.822;2022-12-20T09:49:32;100419.81;;;19.69;39.49
62544;BME280;48597;49.030;1.822;2022-12-20T10:00:20;100411.63;;;19.58;39.58
62544;BME280;48597;49.030;1.822;2022-12-20T10:02:46;100411.94;;;19.60;39.51
62544;BME280;48597;49.030;1.822;2022-12-20T10:13:29;100406.91;;;19.52;39.71
62544;BME280;48597;49.030;1.822;2022-12-20T10:16:24;100391.13;;;19.47;39.77
62544;BME280;48597;49.030;1.822;2022-12-20T10:19:10;100398.56;;;19.45;39.69
62544;BME280;48597;49.030;1.822;2022-12-20T10:22:16;100395.38;;;19.43;39.86
62544;BME280;48597;49.030;1.822;2022-12-20T10:25:26;100399.13;;;19.40;39.64
62544;BME280;48597;49.030;1.822;2022-12-20T10:27:50;100399.59;;;19.38;39.92
62544;BME280;48597;49.030;1.822;2022-12-20T10:30:19;100401.31;;;19.36;39.97
62544;BME280;48597;49.030;1.822;2022-12-20T10:32:51;100401.78;;;19.34;40.12
62544;BME280;48597;49.030;1.822;2022-12-20T10:35:40;100396.97;;;19.31;39.97
62544;BME280;48597;49.030;1.822;2022-12-20T10:38:09;100395.38;;;19.30;39.95
62544;BME280;48597;49.030;1.822;2022-12-20T10:41:02;100392.97;;;19.28;39.96
62544;BME280;48597;49.030;1.822;2022-12-20T10:43:39;100396.63;;;19.29;39.83
62544;BME280;48597;49.030;1.822;2022-12-20T10:46:07;100389.66;;;19.30;39.92
62544;BME280;48597;49.030;1.822;2022-12-20T10:48:35;100389.66;;;19.30;39.89
62544;BME280;48597;49.030;1.822;2022-12-20T10:51:12;100387.16;;;19.32;39.92
62544;BME280;48597;49.030;1.822;2022-12-20T10:54:24;100387.97;;;19.33;39.79
62544;BME280;48597;49.030;1.822;2022-12-20T10:56:58;100378.59;;;19.32;39.96
62544;BME280;48597;49.030;1.822;2022-12-20T10:59:30;100365.91;;;19.33;39.91
62544;BME280;48597;49.030;1.822;2022-12-20T11:01:57;100378.13;;;19.34;39.82
62544;BME280;48597;49.030;1.822;2022-12-20T11:04:27;100369.06;;;19.35;39.77
62544;BME280;48597;49.030;1.822;2022-12-20T11:06:53;100378.44;;;19.36;39.79
62544;BME280;48597;49.030;1.822;2022-12-20T11:09:23;100372.72;;;19.36;39.68
62544;BME280;48597;49.030;1.822;2022-12-20T11:12:14;100369.75;;;19.39;39.64
62544;BME280;48597;49.030;1.822;2022-12-20T11:14:42;100372.28;;;19.37;39.79
62544;BME280;48597;49.030;1.822;2022-12-20T11:28:35;100362.31;;;19.42;39.59
62544;BME280;48597;49.030;1.822;2022-12-20T11:37:22;100355.81;;;19.41;39.93
62544;BME280;48597;49.030;1.822;2022-12-20T11:54:04;100325.97;;;19.42;39.83
62544;BME280;48597;49.030;1.822;2022-12-20T11:56:37;100323.91;;;19.43;39.88
62544;BME280;48597;49.030;1.822;2022-12-20T11:59:11;100315.00;;;19.41;39.98
62544;BME280;48597;49.030;1.822;2022-12-20T12:01:51;100305.84;;;19.46;39.67
62544;BME280;48597;49.030;1.822;2022-12-20T12:04:53;100303.78;;;19.46;39.84
62544;BME280;48597;49.030;1.822;2022-12-20T12:07:42;100312.38;;;19.46;39.65
62544;BME280;48597;49.030;1.822;2022-12-20T12:10:25;100296.47;;;19.45;39.81
62544;BME280;48597;49.030;1.822;2022-12-20T12:13:25;100291.56;;;19.46;39.85
62544;BME280;48597;49.030;1.822;2022-12-20T12:16:11;100292.66;;;19.48;39.83
62544;BME280;48597;49.030;1.822;2022-12-20T12:18:38;100280.94;;;19.46;39.73
62544;BME280;48597;49.030;1.822;2022-12-20T12:21:22;100275.53;;;19.48;39.90
62544;BME280;48597;49.030;1.822;2022-12-20T12:24:07;100277.56;;;19.48;40.04
62544;BME280;48597;49.030;1.822;2022-12-20T12:26:39;100262.06;;;19.49;39.82
62544;BME280;48597;49.030;1.822;2022-12-20T12:45:00;100250.84;;;19.54;39.84
62544;BME280;48597;49.030;1.822;2022-12-20T12:47:38;100261.59;;;19.50;40.04
62544;BME280;48597;49.030;1.822;2022-12-20T12:50:09;100259.53;;;19.51;39.95
62544;BME280;48597;49.030;1.822;2022-12-20T12:52:48;100264.00;;;19.52;39.90
62544;BME280;48597;49.030;1.822;2022-12-20T12:55:53;100261.47;;;19.54;40.10
62544;BME280;48597;49.030;1.822;2022-12-20T13:00:51;100257.25;;;19.58;39.82
62544;BME280;48597;49.030;1.822;2022-12-20T13:03:42;100253.13;;;19.59;39.90
62544;BME280;48597;49.030;1.822;2022-12-20T13:11:40;100251.97;;;19.57;39.88
62544;BME280;48597;49.030;1.822;2022-12-20T13:17:29;100244.84;;;19.61;39.89
62544;BME280;48597;49.030;1.822;2022-12-20T13:19:48;100242.16;;;19.58;40.13
62544;BME280;48597;49.030;1.822;2022-12-20T13:22:22;100234.69;;;19.60;39.83
62544;BME280;48597;49.030;1.822;2022-12-20T13:24:55;100224.84;;;19.61;39.95
62544;BME280;48597;49.030;1.822;2022-12-20T13:27:26;100218.81;;;19.59;39.93
62544;BME280;48597;49.030;1.822;2022-12-20T13:37:57;100199.09;;;19.61;39.99
62544;BME280;48597;49.030;1.822;2022-12-20T13:40:43;100210.88;;;19.63;40.12
62544;BME280;48597;49.030;1.822;2022-12-20T13:48:58;100205.16;;;19.63;40.13
62544;BME280;48597;49.030;1.822;2022-12-20T13:51:29;100209.28;;;19.62;40.10
62544;BME280;48597;49.030;1.822;2022-12-20T13:54:00;100209.63;;;19.65;39.82
62544;BME280;48597;49.030;1.822;2022-12-20T13:58:58;100205.16;;;19.63;40.04
62544;BME280;48597;49.030;1.822;2022-12-20T14:01:27;100205.97;;;19.64;39.81
62544;BME280;48597;49.030;1.822;2022-12-20T14:03:55;100204.38;;;19.63;40.08
62544;BME280;48597;49.030;1.822;2022-12-20T14:06:23;100201.03;;;19.65;40.15
62544;BME280;48597;49.030;1.822;2022-12-20T14:08:51;100203.09;;;19.64;40.14
62544;BME280;48597;49.030;1.822;2022-12-20T14:11:19;100198.97;;;19.65;39.97
62544;BME280;48597;49.030;1.822;2022-12-20T14:13:53;100191.53;;;19.68;40.01
62544;BME280;48597;49.030;1.822;2022-12-20T14:16:20;100191.53;;;19.68;39.95
62544;BME280;48597;49.030;1.822;2022-12-20T14:19:06;100182.03;;;19.71;39.83
62544;BME280;48597;49.030;1.822;2022-12-20T14:21:37;100179.97;;;19.71;39.75
62544;BME280;48597;49.030;1.822;2022-12-20T14:24:05;100185.69;;;19.71;39.84
62544;BME280;48597;49.030;1.822;2022-12-20T14:26:42;100189.34;;;19.72;39.66
62544;BME280;48597;49.030;1.822;2022-12-20T14:29:11;100197.94;;;19.72;39.82
62544;BME280;48597;49.030;1.822;2022-12-20T14:31:42;100192.22;;;19.72;39.75
62544;BME280;48597;49.030;1.822;2022-12-20T14:36:42;100193.47;;;19.71;39.81
62544;BME280;48597;49.030;1.822;2022-12-20T14:39:53;100196.34;;;19.71;39.79
62544;BME280;48597;49.030;1.822;2022-12-20T14:42:21;100185.38;;;19.69;39.68
62544;BME280;48597;49.030;1.822;2022-12-20T14:44:47;100194.41;;;19.68;39.79
62544;BME280;48597;49.030;1.822;2022-12-20T14:47:21;100191.53;;;19.68;39.69
62544;BME280;48597;49.030;1.822;2022-12-20T14:50:00;100192.00;;;19.66;39.80
62544;BME280;48597;49.030;1.822;2022-12-20T14:52:35;100189.59;;;19.65;39.90
62544;BME280;48597;49.030;1.822;2022-12-20T14:55:05;100186.41;;;19.62;39.87
62544;BME280;48597;49.030;1.822;2022-12-20T15:00:14;100192.59;;;19.61;40.24
62544;BME280;48597;49.030;1.822;2022-12-20T15:05:35;100172.75;;;19.57;40.12